OAHR

Herat Airport

Afghanistan
METAR OAHR 170505Z 14015G25KT 3200 BLDU FEW070 SCT090 13/05 Q1017 RMK A3006 YLO
Observed Flight Rules
Jan-17 @ 05:05 UTC (24 minutes ago) Instrument Flight Rules
Wind Visibility Clouds Conditions
140° at 15 knots
 Gusting to 25 knots
3,203 meters
  • Few at 7,000' AGL
  • Scattered at 9,000' AGL
  • Blowing
  • Dust
Temperatures Readings
Current 13°C / 55°F
Dewpoint 5°C / 41°F
Humidity 59%
Altimeter 30.03" Hg
Pressure 1016.92 hPa
Elevation 964
METAR OAHR 170505Z 14015G25KT 3200 BLDU FEW070 SCT090 13/05 Q1017 RMK A3006 YLO
Observed Flight Rules
Jan-17 @ 05:05 UTC
(24 minutes ago)
IFR
Wind Visibility
140° at 15 knots
 Gusting to 25 knots
3,203 meters
Clouds
  • Few at 7,000' AGL
  • Scattered at 9,000' AGL
Conditions
  • Blowing
  • Dust
Temperature Dewpoint
13°C / 55°F 5°C / 41°F
Humidity Altimeter Pressure
59% 30.03" Hg 1016.92 hPa